JFK weather

John F Kennedy International Airport
New York, New York, United States

Public forecast

Using degrees Fahrenheit for public forecast. Weather courtesy of forecast.io.

METAR (pilot weather report)

Retrieved 2019/02/17 12:51 UTC (1 hour ago):

KJFK 171251Z 02009KT 10SM FEW035 SCT250 M03/M09 A3016 RMK AO2 SLP214 T10281094 $

TAF (pilot weather forecast)

Retrieved 2019/02/17 12:06 UTC (2 hours ago):

TAF KJFK 171202Z 1712/1818 01008KT P6SM FEW250 FM171800 14005KT P6SM SCT250 FM172000 17007KT P6SM SCT100 BKN200 FM180300 12008KT 3SM -SNPL BR BKN015 OVC025 FM180700 07010KT 2SM -PLRA BR BKN008 FM180900 06012KT 2SM -RA BR BKN006 FM181300 05006KT 3SM -DZ BR OVC009 FM181500 01006KT 5SM -DZ BR BKN009 OVC015 FM181700 33007KT P6SM BKN015 OVC025